Rexmont, Pennsylvania
Current Conditions -  °F | °C
As of 3:53 AM on Saturday 22 Nov 2014 (Local Time) from KLNS Reporting Station
Clear Clear  
Wind Chill: 19°   Ceiling: Unl
Heat Index: 19°   Visibility: 10mi
Dew Point: 11°   Wind: 0mph
Humidity: 71%   Direction: NA
Pressure: 30.5"   Gusts: NA
Location:  40.28°N, 76.38°W
Report Text: KLNS 220853Z AUTO 00000KT 10SM CLR M07/M12 A3050 RMK AO2 SLP332 T10721117 56008
Loading
Personal Weather Stations






























Interactive Weather Map New forecast layout! Learn more

10-Day Weather Forecast

Advertisements
Track Severe Weather on mobile